Time;durP1;ratioP1;P1;durP2;ratioP2;P2;SDS_P1;SDS_P2;PMS_P1;PMS_P2;Temp;Humidity;BMP_temperature;BMP_pressure;BME280_temperature;BME280_humidity;BME280_pressure;Samples;Min_cycle;Max_cycle;Signal;HPM_P1;HPM_P2
2021/08/31 00:00:40;;;;;;;11.60;10.50;;;17.40;99.90;;;;;;5013658;28;20246;-48
2021/08/31 00:03:05;;;;;;;13.73;12.33;;;17.40;99.90;;;;;;5013888;28;20438;-50
2021/08/31 00:05:31;;;;;;;11.17;9.97;;;17.40;99.90;;;;;;5013829;28;20182;-49
2021/08/31 00:07:56;;;;;;;11.13;10.13;;;17.50;99.90;;;;;;5013717;28;20195;-49
2021/08/31 00:10:22;;;;;;;10.80;9.70;;;17.50;99.90;;;;;;5013749;28;20186;-47
2021/08/31 00:12:47;;;;;;;11.80;10.57;;;17.50;99.90;;;;;;5013828;28;20182;-50
2021/08/31 00:15:13;;;;;;;12.67;11.50;;;17.50;99.90;;;;;;5013523;28;20210;-49
2021/08/31 00:17:39;;;;;;;15.53;14.00;;;17.30;99.90;;;;;;5013364;28;20253;-55
2021/08/31 00:20:06;;;;;;;10.43;9.43;;;17.30;99.90;;;;;;5013902;28;20222;-55
2021/08/31 00:22:34;;;;;;;10.70;9.70;;;17.40;99.90;;;;;;5013735;28;20179;-55
2021/08/31 00:25:00;;;;;;;13.30;12.00;;;17.50;99.90;;;;;;5013875;28;20468;-49
2021/08/31 00:27:26;;;;;;;12.57;11.30;;;17.50;99.90;;;;;;4995845;28;20457;-51
2021/08/31 00:29:51;;;;;;;13.00;11.83;;;17.50;99.90;;;;;;5014068;28;20175;-49
2021/08/31 00:32:17;;;;;;;12.23;11.07;;;17.50;99.90;;;;;;5013050;28;20263;-50
2021/08/31 00:34:43;;;;;;;10.73;9.73;;;17.40;99.90;;;;;;5013930;28;20180;-54
2021/08/31 00:37:08;;;;;;;13.27;11.77;;;17.40;99.90;;;;;;5013361;28;20298;-49
2021/08/31 00:39:34;;;;;;;12.40;11.20;;;17.50;99.90;;;;;;5013719;28;20175;-49
2021/08/31 00:41:59;;;;;;;11.60;10.50;;;17.20;99.90;;;;;;5005093;28;20604;-48
2021/08/31 00:44:28;;;;;;;11.00;9.93;;;17.40;99.90;;;;;;5014383;28;20253;-50
2021/08/31 00:47:04;;;;;;;11.60;10.50;;;17.50;99.90;;;;;;5013242;28;20199;-49
2021/08/31 00:49:30;;;;;;;11.17;9.97;;;17.50;99.90;;;;;;5014023;28;20402;-50
2021/08/31 00:51:57;;;;;;;12.63;11.43;;;17.50;99.90;;;;;;5013830;28;20821;-51
2021/08/31 00:54:24;;;;;;;11.20;10.10;;;17.50;99.90;;;;;;5013593;28;20419;-54
2021/08/31 00:56:54;;;;;;;12.63;11.53;;;17.50;99.90;;;;;;5013287;28;20473;-54
2021/08/31 00:59:20;;;;;;;11.37;10.27;;;17.50;99.90;;;;;;5013792;28;20418;-57
2021/08/31 01:01:47;;;;;;;13.37;12.00;;;17.50;99.90;;;;;;5013027;28;20420;-56
2021/08/31 01:04:13;;;;;;;15.70;13.90;;;17.60;99.90;;;;;;5013642;28;20430;-57
2021/08/31 01:06:39;;;;;;;15.07;13.53;;;17.10;99.90;;;;;;5013329;28;20415;-57
2021/08/31 01:09:08;;;;;;;13.00;11.77;;;17.20;99.90;;;;;;5012483;28;20460;-55
2021/08/31 01:11:35;;;;;;;13.23;11.93;;;17.30;99.90;;;;;;5013285;28;20421;-56
2021/08/31 01:14:01;;;;;;;14.50;13.00;;;17.40;99.90;;;;;;5013240;28;20425;-49
2021/08/31 01:16:27;;;;;;;14.10;12.60;;;17.30;99.90;;;;;;5012818;28;20800;-50
2021/08/31 01:18:52;;;;;;;14.00;12.50;;;17.40;99.90;;;;;;5013479;28;20209;-49
2021/08/31 01:21:18;;;;;;;14.70;13.20;;;17.50;99.90;;;;;;5013575;28;20176;-52
2021/08/31 01:23:46;;;;;;;17.20;15.40;;;17.60;99.90;;;;;;5013244;28;20172;-49
2021/08/31 01:26:12;;;;;;;16.37;14.77;;;17.50;99.90;;;;;;5013172;28;20269;-51
2021/08/31 01:28:38;;;;;;;17.83;16.13;;;17.50;99.90;;;;;;5013229;28;20434;-49
2021/08/31 01:31:04;;;;;;;14.07;12.67;;;17.50;99.90;;;;;;5012962;28;20564;-49
2021/08/31 01:33:32;;;;;;;14.80;13.30;;;17.60;99.90;;;;;;5014568;28;20179;-53
2021/08/31 01:36:11;;;;;;;17.73;13.40;;;17.60;99.90;;;;;;5017289;28;20453;-58
2021/08/31 01:38:37;;;;;;;14.30;12.80;;;17.70;99.90;;;;;;5016702;28;20458;-58
2021/08/31 01:41:03;;;;;;;16.50;14.30;;;17.60;99.90;;;;;;5018429;28;20745;-57
2021/08/31 01:43:28;;;;;;;14.60;13.20;;;17.60;99.90;;;;;;5016881;28;20184;-50
2021/08/31 01:45:54;;;;;;;16.77;15.07;;;17.50;99.90;;;;;;5016442;28;20199;-57
2021/08/31 01:48:20;;;;;;;19.70;17.50;;;17.50;99.90;;;;;;5016338;28;20279;-57
2021/08/31 01:50:46;;;;;;;17.30;15.60;;;17.50;99.90;;;;;;5016582;28;20194;-56
2021/08/31 01:53:11;;;;;;;21.50;19.30;;;17.20;99.90;;;;;;5016483;28;20414;-57
2021/08/31 01:55:37;;;;;;;20.70;18.17;;;17.00;99.90;;;;;;5016581;28;20198;-50
2021/08/31 01:58:03;;;;;;;20.33;18.00;;;17.00;99.90;;;;;;5016600;28;20222;-49
2021/08/31 02:00:29;;;;;;;20.23;17.63;;;17.10;99.90;;;;;;5016442;28;20179;-49
2021/08/31 02:02:55;;;;;;;17.00;15.23;;;17.20;99.90;;;;;;5016181;28;20421;-50
2021/08/31 02:05:21;;;;;;;19.10;17.10;;;17.20;99.90;;;;;;5016636;28;20419;-51
2021/08/31 02:07:46;;;;;;;20.00;16.77;;;17.20;99.90;;;;;;5016496;28;20657;-51
2021/08/31 02:10:12;;;;;;;16.80;15.10;;;17.20;99.90;;;;;;5016482;28;20194;-50
2021/08/31 02:12:38;;;;;;;16.53;14.83;;;17.30;99.90;;;;;;5016080;28;20257;-50
2021/08/31 02:15:04;;;;;;;16.93;15.30;;;17.30;99.90;;;;;;5016414;28;20434;-50
2021/08/31 02:17:30;;;;;;;23.90;19.90;;;17.30;99.90;;;;;;5015691;28;20214;-51
2021/08/31 02:19:55;;;;;;;19.10;15.40;;;17.30;99.90;;;;;;5016101;28;20405;-52
2021/08/31 02:22:21;;;;;;;14.57;13.07;;;17.30;99.90;;;;;;5016322;28;20167;-51
2021/08/31 02:24:47;;;;;;;18.13;16.33;;;17.30;99.90;;;;;;5015765;28;20510;-56
2021/08/31 02:27:13;;;;;;;17.33;15.60;;;17.20;99.90;;;;;;5015978;28;20260;-54
2021/08/31 02:29:38;;;;;;;17.27;15.60;;;17.20;99.90;;;;;;5015926;28;20176;-53
2021/08/31 02:32:05;;;;;;;21.57;18.60;;;17.20;99.90;;;;;;5015325;28;20497;-55
2021/08/31 02:34:31;;;;;;;16.70;14.40;;;17.20;99.90;;;;;;5016581;28;20187;-55
2021/08/31 02:36:57;;;;;;;14.97;13.57;;;17.20;99.90;;;;;;5001418;28;21006;-56
2021/08/31 02:39:23;;;;;;;15.40;13.80;;;17.20;99.90;;;;;;4996422;28;20420;-58
2021/08/31 02:41:48;;;;;;;15.40;13.90;;;17.20;99.90;;;;;;4996291;28;20177;-55
2021/08/31 02:44:14;;;;;;;16.77;14.43;;;17.20;99.90;;;;;;5015063;28;20179;-58
2021/08/31 02:46:40;;;;;;;23.27;17.60;;;17.30;99.90;;;;;;5014410;28;20261;-57
2021/08/31 02:49:05;;;;;;;19.70;16.30;;;17.20;99.90;;;;;;5015775;28;20175;-57
2021/08/31 02:51:31;;;;;;;17.07;14.93;;;17.20;99.90;;;;;;5015507;28;20629;-57
2021/08/31 02:53:56;;;;;;;15.23;13.63;;;17.10;99.90;;;;;;5015583;28;20170;-56
2021/08/31 02:56:22;;;;;;;16.00;14.30;;;17.10;99.90;;;;;;5015737;28;20302;-54
2021/08/31 02:58:48;;;;;;;15.50;13.90;;;17.10;99.90;;;;;;5015536;28;20195;-57
2021/08/31 03:03:54;;;;;;;18.90;16.87;;;17.10;99.90;;;;;;5000149;28;20600;-50
2021/08/31 03:06:19;;;;;;;17.27;15.47;;;16.90;99.90;;;;;;5015045;28;20410;-52
2021/08/31 03:08:45;;;;;;;15.73;14.03;;;17.00;99.90;;;;;;4997447;28;20747;-51
2021/08/31 03:11:10;;;;;;;15.90;14.23;;;17.00;99.90;;;;;;5015391;28;20173;-49
2021/08/31 03:13:36;;;;;;;17.80;15.90;;;17.00;99.90;;;;;;5015546;28;20183;-56
2021/08/31 03:16:02;;;;;;;15.07;13.50;;;17.00;99.90;;;;;;5015059;28;20663;-56
2021/08/31 03:18:28;;;;;;;14.23;12.70;;;17.00;99.90;;;;;;5014529;28;20195;-57
2021/08/31 03:20:53;;;;;;;14.43;13.10;;;17.10;99.90;;;;;;5014888;28;20170;-56
2021/08/31 03:23:19;;;;;;;20.47;17.97;;;17.10;99.90;;;;;;5014853;28;20197;-57
2021/08/31 03:25:45;;;;;;;15.47;13.97;;;17.10;99.90;;;;;;5014974;28;20182;-55
2021/08/31 03:28:11;;;;;;;15.63;14.10;;;17.20;99.90;;;;;;5014955;28;20309;-57
2021/08/31 03:30:36;;;;;;;14.53;12.53;;;17.20;99.90;;;;;;5014998;28;20211;-57
2021/08/31 03:33:02;;;;;;;17.70;16.00;;;17.30;99.90;;;;;;5014244;28;20401;-57
2021/08/31 03:35:28;;;;;;;16.60;14.80;;;17.20;99.90;;;;;;5015305;28;20171;-56
2021/08/31 03:37:54;;;;;;;17.57;15.77;;;17.10;99.90;;;;;;5014567;28;20493;-57
2021/08/31 03:40:19;;;;;;;22.33;20.03;;;17.00;99.90;;;;;;5015085;28;20169;-57
2021/08/31 03:42:46;;;;;;;16.87;15.03;;;17.00;99.90;;;;;;5014408;28;20187;-58
2021/08/31 03:45:12;;;;;;;20.37;18.30;;;17.00;99.90;;;;;;5014667;28;20254;-56
2021/08/31 03:47:38;;;;;;;21.07;16.53;;;17.00;99.90;;;;;;5013877;28;20446;-55
2021/08/31 03:50:04;;;;;;;21.10;19.00;;;16.80;99.90;;;;;;5014754;28;20648;-57
2021/08/31 03:52:29;;;;;;;20.37;18.17;;;16.80;99.90;;;;;;5014387;28;20174;-55
2021/08/31 03:54:55;;;;;;;26.73;20.80;;;16.80;99.90;;;;;;5014530;28;20749;-57
2021/08/31 03:57:20;;;;;;;22.67;19.60;;;16.90;99.90;;;;;;5013783;28;20203;-57
2021/08/31 03:59:46;;;;;;;19.77;16.27;;;16.80;99.90;;;;;;5014239;28;20167;-58
2021/08/31 04:02:12;;;;;;;20.40;18.27;;;16.80;99.90;;;;;;5013008;28;20221;-56
2021/08/31 04:04:37;;;;;;;19.67;17.03;;;16.90;99.90;;;;;;5014529;28;20536;-50
2021/08/31 04:07:03;;;;;;;16.00;14.40;;;17.00;99.90;;;;;;5014353;28;20210;-51
2021/08/31 04:09:29;;;;;;;20.00;16.83;;;17.10;99.90;;;;;;5014401;28;20224;-51
2021/08/31 04:11:55;;;;;;;19.83;17.73;;;17.10;99.90;;;;;;5014287;28;20529;-50
2021/08/31 04:14:20;;;;;;;17.77;15.97;;;17.10;99.90;;;;;;5014034;28;20182;-51
2021/08/31 04:16:46;;;;;;;17.20;15.43;;;17.20;99.90;;;;;;5013495;28;20719;-52
2021/08/31 04:19:11;;;;;;;20.23;18.13;;;17.20;99.90;;;;;;5014403;28;20178;-49
2021/08/31 04:21:37;;;;;;;19.63;17.40;;;17.20;99.90;;;;;;5013993;28;20245;-50
2021/08/31 04:24:03;;;;;;;23.13;19.63;;;17.20;99.90;;;;;;5013857;28;20175;-57
2021/08/31 04:26:30;;;;;;;23.83;20.03;;;16.90;99.90;;;;;;5014008;28;20176;-57
2021/08/31 04:28:56;;;;;;;18.67;16.60;;;16.80;99.90;;;;;;5005270;28;20418;-57
2021/08/31 04:31:22;;;;;;;21.33;16.63;;;16.90;99.90;;;;;;4994138;28;20418;-57
2021/08/31 04:33:49;;;;;;;20.77;17.70;;;17.00;99.90;;;;;;4993835;28;20168;-58
2021/08/31 04:36:15;;;;;;;19.10;17.00;;;17.00;99.90;;;;;;4994080;28;20460;-57
2021/08/31 04:38:40;;;;;;;21.40;19.10;;;17.20;99.90;;;;;;4993870;28;20454;-57
2021/08/31 04:41:07;;;;;;;18.60;16.80;;;17.20;99.90;;;;;;4994170;28;20220;-57
2021/08/31 04:43:33;;;;;;;26.63;20.03;;;17.20;99.90;;;;;;5007974;28;20181;-52
2021/08/31 04:45:59;;;;;;;18.00;16.13;;;17.20;99.90;;;;;;5013760;28;20890;-50
2021/08/31 04:48:24;;;;;;;17.87;16.03;;;17.20;99.90;;;;;;5013191;28;20418;-49
2021/08/31 04:50:50;;;;;;;18.30;16.50;;;17.20;99.90;;;;;;5013585;28;20167;-50
2021/08/31 04:53:16;;;;;;;17.27;14.90;;;17.20;99.90;;;;;;5014066;28;20521;-52
2021/08/31 04:55:41;;;;;;;21.07;18.87;;;17.30;99.90;;;;;;5013791;28;20640;-57
2021/08/31 04:58:07;;;;;;;21.83;17.60;;;17.30;99.90;;;;;;5013524;28;20206;-53
2021/08/31 05:00:33;;;;;;;18.10;15.20;;;17.30;99.90;;;;;;5013408;28;20584;-57
2021/08/31 05:02:59;;;;;;;19.60;17.50;;;17.10;99.90;;;;;;4995384;28;20305;-57
2021/08/31 05:05:25;;;;;;;18.00;16.10;;;16.70;99.90;;;;;;5012262;28;20499;-56
2021/08/31 05:07:51;;;;;;;18.97;16.97;;;16.70;99.90;;;;;;5013256;28;20240;-57
2021/08/31 05:10:17;;;;;;;21.60;19.27;;;16.80;99.90;;;;;;5017402;28;20169;-57
2021/08/31 05:12:42;;;;;;;17.77;15.97;;;16.60;99.90;;;;;;5017173;28;20429;-55
2021/08/31 05:15:08;;;;;;;19.10;16.83;;;16.70;99.90;;;;;;5017242;28;20165;-58
2021/08/31 05:17:35;;;;;;;19.83;17.80;;;16.80;99.90;;;;;;5016867;28;20205;-54
2021/08/31 05:20:03;;;;;;;21.13;18.77;;;16.80;99.90;;;;;;5017073;28;20775;-57
2021/08/31 05:22:29;;;;;;;22.33;17.50;;;16.90;99.90;;;;;;5017644;28;20769;-56
2021/08/31 05:24:55;;;;;;;19.50;17.50;;;16.80;99.90;;;;;;5016945;28;20399;-57
2021/08/31 05:27:22;;;;;;;18.20;16.30;;;16.90;99.90;;;;;;5016976;28;20440;-56
2021/08/31 05:29:48;;;;;;;19.37;17.37;;;16.80;99.90;;;;;;5016960;28;20649;-57
2021/08/31 05:32:13;;;;;;;20.20;17.77;;;16.80;99.90;;;;;;5016993;28;20485;-56
2021/08/31 05:34:39;;;;;;;21.60;18.67;;;16.80;99.90;;;;;;5016738;28;20174;-56
2021/08/31 05:37:05;;;;;;;17.43;14.90;;;16.90;99.90;;;;;;5016447;28;20287;-57
2021/08/31 05:39:33;;;;;;;18.07;16.10;;;16.90;99.90;;;;;;5016712;28;20149;-56
2021/08/31 05:42:04;;;;;;;17.30;14.83;;;17.00;99.90;;;;;;5016794;28;20209;-58
2021/08/31 05:44:34;;;;;;;33.43;29.57;;;17.20;99.90;;;;;;5016349;28;20404;-58
2021/08/31 05:47:01;;;;;;;18.40;16.50;;;17.30;99.90;;;;;;5016340;28;20428;-55
2021/08/31 05:49:26;;;;;;;53.60;41.50;;;17.10;99.90;;;;;;5016758;28;20821;-56
2021/08/31 05:51:56;;;;;;;17.10;15.27;;;17.00;99.90;;;;;;5016464;28;20477;-56
2021/08/31 05:54:21;;;;;;;20.87;18.80;;;16.90;99.90;;;;;;5016837;28;20168;-55
2021/08/31 05:56:50;;;;;;;27.40;24.73;;;16.70;99.90;;;;;;5016597;28;20456;-53
2021/08/31 05:59:16;;;;;;;121.87;110.87;;;16.80;99.90;;;;;;5016330;28;20217;-56
2021/08/31 06:01:44;;;;;;;28.80;26.10;;;16.80;99.90;;;;;;5016226;28;20405;-57
2021/08/31 06:04:09;;;;;;;18.40;15.87;;;16.80;99.90;;;;;;5016362;28;20175;-57
2021/08/31 06:06:35;;;;;;;18.67;16.73;;;16.80;99.90;;;;;;5015751;28;20439;-56
2021/08/31 06:09:00;;;;;;;113.50;105.83;;;16.80;99.90;;;;;;5016315;28;20181;-55
2021/08/31 06:11:29;;;;;;;40.13;36.83;;;16.70;99.90;;;;;;5016310;28;20216;-57
2021/08/31 06:13:54;;;;;;;31.23;28.73;;;16.70;99.90;;;;;;5016139;28;20609;-56
2021/08/31 06:16:20;;;;;;;31.57;29.00;;;16.80;99.90;;;;;;5016115;28;20451;-56
2021/08/31 06:18:45;;;;;;;17.13;15.60;;;16.80;99.90;;;;;;5015382;28;20525;-57
2021/08/31 06:21:11;;;;;;;16.87;14.30;;;16.60;99.90;;;;;;5015468;28;20245;-56
2021/08/31 06:23:37;;;;;;;14.63;13.10;;;16.40;99.90;;;;;;5015716;28;20174;-57
2021/08/31 06:26:02;;;;;;;16.90;15.30;;;16.50;99.90;;;;;;5016036;28;20185;-56
2021/08/31 06:28:28;;;;;;;15.20;13.60;;;16.60;99.90;;;;;;5016006;28;20749;-56
2021/08/31 06:30:53;;;;;;;16.33;14.67;;;16.70;99.90;;;;;;5015808;28;20164;-57
2021/08/31 06:33:19;;;;;;;15.43;13.90;;;16.70;99.90;;;;;;5015606;28;20168;-54
2021/08/31 06:35:44;;;;;;;16.10;14.50;;;16.60;99.90;;;;;;5015272;28;20255;-57
2021/08/31 06:38:10;;;;;;;16.27;14.57;;;16.50;99.90;;;;;;5013032;28;20214;-56
2021/08/31 06:40:36;;;;;;;14.17;12.87;;;16.60;99.90;;;;;;4996288;28;20532;-56
2021/08/31 06:43:03;;;;;;;13.70;12.40;;;16.70;99.90;;;;;;4996119;28;20417;-56
2021/08/31 06:45:28;;;;;;;15.60;14.10;;;17.00;99.90;;;;;;4995771;28;20178;-58
2021/08/31 06:47:54;;;;;;;14.27;12.70;;;17.20;99.90;;;;;;4995274;28;20799;-57
2021/08/31 06:50:19;;;;;;;13.80;12.47;;;17.00;99.90;;;;;;4995804;28;20217;-57
2021/08/31 06:52:46;;;;;;;14.43;11.77;;;17.20;99.90;;;;;;4995891;28;20191;-58
2021/08/31 06:55:13;;;;;;;14.30;12.90;;;17.50;99.90;;;;;;5008888;28;20672;-57
2021/08/31 06:57:39;;;;;;;12.93;11.63;;;17.50;99.90;;;;;;5014997;28;20460;-54
2021/08/31 07:00:07;;;;;;;13.00;11.63;;;17.50;99.90;;;;;;5014838;28;20463;-56
2021/08/31 07:02:33;;;;;;;12.20;11.00;;;17.60;99.90;;;;;;5015080;28;20176;-57
2021/08/31 07:04:58;;;;;;;15.20;13.10;;;17.70;99.90;;;;;;5015072;28;20409;-58
2021/08/31 07:07:24;;;;;;;13.67;12.37;;;17.80;99.90;;;;;;5014932;28;20438;-53
2021/08/31 07:09:50;;;;;;;14.60;13.20;;;17.60;99.90;;;;;;5014926;28;20167;-56
2021/08/31 07:12:15;;;;;;;12.97;11.77;;;17.30;99.90;;;;;;5014464;28;20595;-60
2021/08/31 07:14:41;;;;;;;11.57;10.47;;;17.00;99.90;;;;;;5014707;28;20164;-56
2021/08/31 07:17:07;;;;;;;12.80;11.50;;;17.10;99.90;;;;;;5014827;28;20250;-55
2021/08/31 07:19:32;;;;;;;11.73;10.53;;;17.30;99.90;;;;;;5014831;28;20275;-56
2021/08/31 07:21:58;;;;;;;12.10;10.50;;;17.30;99.90;;;;;;5015514;28;20568;-56
2021/08/31 07:24:24;;;;;;;12.77;11.47;;;17.30;99.90;;;;;;5015377;28;20171;-57
2021/08/31 07:26:50;;;;;;;16.53;10.67;;;17.10;99.90;;;;;;5014652;28;20240;-57
2021/08/31 07:29:16;;;;;;;13.53;12.10;;;17.20;99.90;;;;;;4996857;28;20221;-58
2021/08/31 07:31:42;;;;;;;12.60;11.30;;;17.20;99.90;;;;;;5014189;28;20648;-57
2021/08/31 07:34:07;;;;;;;12.93;10.70;;;17.20;99.90;;;;;;5014631;28;20425;-57
2021/08/31 07:36:33;;;;;;;12.37;11.07;;;17.30;99.90;;;;;;5014304;28;20604;-57
2021/08/31 07:38:59;;;;;;;11.33;10.10;;;17.50;99.90;;;;;;5014629;28;20632;-57
2021/08/31 07:41:25;;;;;;;13.03;11.83;;;17.60;99.90;;;;;;5041967;23;20710;-59
2021/08/31 07:43:52;;;;;;;13.13;11.07;;;17.70;99.90;;;;;;5014824;28;20179;-61
2021/08/31 07:46:18;;;;;;;13.90;10.80;;;17.90;99.90;;;;;;5033758;28;20886;-59
2021/08/31 07:48:44;;;;;;;11.97;10.77;;;18.00;99.90;;;;;;5032123;28;20456;-60
2021/08/31 07:51:10;;;;;;;10.60;9.60;;;17.90;99.90;;;;;;5033915;28;20885;-61
2021/08/31 07:53:36;;;;;;;9.10;8.20;;;17.90;99.90;;;;;;5033124;28;20171;-60
2021/08/31 07:56:02;;;;;;;10.87;9.70;;;17.90;99.90;;;;;;5033786;28;20406;-59
2021/08/31 07:58:27;;;;;;;9.50;8.50;;;17.70;99.90;;;;;;5033730;28;20199;-59
2021/08/31 08:00:53;;;;;;;13.50;11.77;;;17.60;99.90;;;;;;5033780;28;20175;-60
2021/08/31 08:03:18;;;;;;;10.23;9.33;;;17.80;99.90;;;;;;5033467;28;20549;-61
2021/08/31 08:05:44;;;;;;;10.70;9.70;;;17.80;99.90;;;;;;5033978;28;20221;-61
2021/08/31 08:08:10;;;;;;;9.50;8.60;;;18.00;99.90;;;;;;5033945;28;20172;-61
2021/08/31 08:10:35;;;;;;;12.07;9.80;;;17.90;99.90;;;;;;5033564;28;20249;-57
2021/08/31 08:13:01;;;;;;;10.43;8.93;;;18.20;99.90;;;;;;5033519;28;20177;-59
2021/08/31 08:15:26;;;;;;;9.93;8.93;;;18.40;99.90;;;;;;5033036;28;20176;-59
2021/08/31 08:17:52;;;;;;;11.20;10.10;;;18.40;99.90;;;;;;5033195;28;20277;-60
2021/08/31 08:20:18;;;;;;;10.37;9.37;;;18.40;99.90;;;;;;5033549;28;20163;-60
2021/08/31 08:22:44;;;;;;;9.50;8.60;;;18.40;99.90;;;;;;5033153;28;20190;-59
2021/08/31 08:25:11;;;;;;;9.67;8.77;;;18.50;99.90;;;;;;5033161;28;20210;-60
2021/08/31 08:27:36;;;;;;;9.37;8.50;;;18.50;99.90;;;;;;5033164;28;20406;-59
2021/08/31 08:30:03;;;;;;;9.10;8.20;;;18.60;99.90;;;;;;5032920;28;20406;-58
2021/08/31 08:32:29;;;;;;;10.37;9.47;;;18.50;99.90;;;;;;5033489;28;20667;-60
2021/08/31 08:34:55;;;;;;;9.50;8.50;;;18.50;99.90;;;;;;5026457;28;20403;-59
2021/08/31 08:37:20;;;;;;;9.00;8.10;;;18.30;99.90;;;;;;5028708;28;20187;-60
2021/08/31 08:39:46;;;;;;;10.70;9.43;;;18.20;99.90;;;;;;5033309;28;20412;-59
2021/08/31 08:42:13;;;;;;;10.27;9.27;;;18.00;99.90;;;;;;5032823;28;20203;-60
2021/08/31 08:44:39;;;;;;;10.80;8.33;;;18.00;99.90;;;;;;5033087;28;20167;-59
2021/08/31 08:47:04;;;;;;;11.87;10.63;;;18.00;99.90;;;;;;5032692;28;20414;-59
2021/08/31 08:49:30;;;;;;;9.00;8.10;;;18.20;99.90;;;;;;5033242;28;20570;-58
2021/08/31 08:51:57;;;;;;;9.47;8.57;;;18.50;99.90;;;;;;5033242;28;20195;-59
2021/08/31 08:54:24;;;;;;;9.00;8.20;;;18.80;99.90;;;;;;5033062;28;20171;-58
2021/08/31 08:56:51;;;;;;;10.20;9.10;;;18.70;99.90;;;;;;5032791;28;20438;-58
2021/08/31 08:59:20;;;;;;;9.87;8.37;;;18.80;99.90;;;;;;5032616;28;20771;-58
2021/08/31 09:01:55;;;;;;;11.17;8.63;;;18.90;99.90;;;;;;5032755;28;20425;-59
2021/08/31 09:04:42;;;;;;;8.60;7.80;;;18.70;99.90;;;;;;5032576;28;20378;-57
2021/08/31 09:07:16;;;;;;;8.83;7.83;;;18.60;99.90;;;;;;5033297;28;20906;-60
2021/08/31 09:09:42;;;;;;;8.50;7.70;;;18.70;99.90;;;;;;5032904;28;20932;-58
2021/08/31 09:12:07;;;;;;;9.60;8.73;;;18.80;99.90;;;;;;5032402;28;20463;-59
2021/08/31 09:14:36;;;;;;;9.33;8.07;;;18.80;99.90;;;;;;5032605;28;20652;-58
2021/08/31 09:17:08;;;;;;;9.23;8.43;;;18.60;99.90;;;;;;5032536;28;20194;-62
2021/08/31 09:19:38;;;;;;;8.87;8.03;;;18.50;99.90;;;;;;5032919;28;20382;-58
2021/08/31 09:22:22;;;;;;;9.20;8.30;;;18.50;99.90;;;;;;5033089;28;20433;-60
2021/08/31 09:25:00;;;;;;;8.53;7.63;;;19.10;99.90;;;;;;5033699;28;20928;-58
2021/08/31 09:27:44;;;;;;;8.70;7.80;;;19.20;99.90;;;;;;5032543;28;20428;-56
2021/08/31 09:30:30;;;;;;;8.50;7.70;;;19.20;99.90;;;;;;5032698;28;20390;-60
2021/08/31 09:33:03;;;;;;;8.30;7.50;;;19.20;99.90;;;;;;5032859;28;21090;-59
2021/08/31 09:35:33;;;;;;;9.10;7.20;;;19.40;99.90;;;;;;5032734;28;20413;-58
2021/08/31 09:38:04;;;;;;;8.23;7.50;;;19.70;99.90;;;;;;5032699;28;20442;-59
2021/08/31 09:40:31;;;;;;;7.57;6.77;;;19.70;99.90;;;;;;5032498;28;20484;-58
2021/08/31 09:43:06;;;;;;;9.10;8.23;;;19.90;99.90;;;;;;5032161;28;20962;-59
2021/08/31 09:45:38;;;;;;;8.23;7.20;;;19.80;99.90;;;;;;5032064;28;20397;-59
2021/08/31 09:48:06;;;;;;;9.60;7.20;;;19.80;99.90;;;;;;5031982;28;20410;-57
2021/08/31 09:50:35;;;;;;;7.93;7.23;;;19.80;99.90;;;;;;5015084;28;20402;-57
2021/08/31 09:53:03;;;;;;;7.87;7.17;;;20.00;99.90;;;;;;5032046;28;20409;-60
2021/08/31 09:55:29;;;;;;;9.00;8.20;;;20.20;99.90;;;;;;5034984;28;20489;-61
2021/08/31 09:58:24;;;;;;;6.60;6.00;;;20.10;99.90;;;;;;5036138;28;20556;-60
2021/08/31 10:00:52;;;;;;;7.90;7.10;;;20.00;99.90;;;;;;5033690;28;20176;-61
2021/08/31 10:03:18;;;;;;;7.97;7.17;;;19.80;99.90;;;;;;5035880;28;20560;-61
2021/08/31 10:05:46;;;;;;;8.10;6.73;;;19.60;99.90;;;;;;5035769;28;20489;-61
2021/08/31 10:08:12;;;;;;;7.93;7.23;;;19.60;99.90;;;;;;5035783;28;20398;-61
2021/08/31 10:10:39;;;;;;;7.90;7.20;;;19.40;99.90;;;;;;5035890;28;20491;-60
2021/08/31 10:13:12;;;;;;;7.40;6.70;;;19.40;99.90;;;;;;5018024;28;20472;-60
2021/08/31 10:15:43;;;;;;;8.20;7.50;;;19.50;99.90;;;;;;5035439;28;20398;-60
2021/08/31 10:18:09;;;;;;;7.93;7.23;;;19.40;99.90;;;;;;5017202;28;20454;-60
2021/08/31 10:20:41;;;;;;;7.73;7.03;;;19.20;99.90;;;;;;5035531;28;20417;-61
2021/08/31 10:23:07;;;;;;;8.50;7.70;;;19.20;99.90;;;;;;5035832;28;20152;-60
2021/08/31 10:25:33;;;;;;;8.30;7.50;;;19.40;99.90;;;;;;5035625;28;20402;-59
2021/08/31 10:28:00;;;;;;;8.80;8.00;;;19.60;99.90;;;;;;5035382;28;20456;-59
2021/08/31 10:30:28;;;;;;;8.33;7.50;;;19.70;99.90;;;;;;5035133;28;20171;-61
2021/08/31 10:33:02;;;;;;;10.17;7.30;;;19.90;99.90;;;;;;5035011;28;20441;-60
2021/08/31 10:35:31;;;;;;;7.30;6.60;;;20.10;99.90;;;;;;5026642;28;20428;-59
2021/08/31 10:37:58;;;;;;;7.70;7.00;;;20.30;99.90;;;;;;5034555;28;20583;-60
2021/08/31 10:40:41;;;;;;;10.20;6.40;;;20.40;99.90;;;;;;5028127;28;20411;-60
2021/08/31 10:43:08;;;;;;;6.20;5.70;;;20.40;99.90;;;;;;5015359;28;20900;-61
2021/08/31 10:45:37;;;;;;;6.33;5.83;;;20.50;99.90;;;;;;5015080;28;20840;-59
2021/08/31 10:48:23;;;;;;;6.70;5.37;;;20.50;99.90;;;;;;5025015;28;20402;-60
2021/08/31 10:51:03;;;;;;;6.90;5.23;;;20.20;99.90;;;;;;5021152;28;20413;-60
2021/08/31 10:53:40;;;;;;;6.87;6.27;;;20.00;99.90;;;;;;5034997;28;20774;-58
2021/08/31 10:56:21;;;;;;;9.57;6.60;;;20.00;99.90;;;;;;5035074;28;20402;-60
2021/08/31 10:58:52;;;;;;;8.73;7.17;;;20.00;99.90;;;;;;5034750;28;20456;-60
2021/08/31 11:01:23;;;;;;;7.20;6.50;;;20.40;99.90;;;;;;5035068;28;20517;-58
2021/08/31 11:03:51;;;;;;;9.83;7.23;;;20.60;99.90;;;;;;5034630;28;20798;-60
2021/08/31 11:06:19;;;;;;;7.20;6.10;;;20.60;99.90;;;;;;5033966;28;20408;-60
2021/08/31 11:09:05;;;;;;;7.00;6.30;;;20.70;99.90;;;;;;5035085;28;20402;-60
2021/08/31 11:11:31;;;;;;;11.13;7.10;;;20.70;99.90;;;;;;5035361;28;20425;-60
2021/08/31 11:13:58;;;;;;;10.13;6.97;;;20.80;99.90;;;;;;5036427;28;20843;-59
2021/08/31 11:16:29;;;;;;;7.80;6.70;;;21.10;99.90;;;;;;5035860;28;20282;-60
2021/08/31 11:18:54;;;;;;;6.83;5.70;;;21.00;99.90;;;;;;5034476;28;20750;-58
2021/08/31 11:21:21;;;;;;;6.87;6.27;;;21.00;99.90;;;;;;5034923;28;20521;-60
2021/08/31 11:23:47;;;;;;;7.43;6.30;;;20.80;99.90;;;;;;5034443;28;20175;-59
2021/08/31 11:26:24;;;;;;;6.13;5.53;;;20.40;99.90;;;;;;5016561;28;20825;-60
2021/08/31 11:28:51;;;;;;;7.17;6.47;;;20.50;99.90;;;;;;5034179;28;20408;-60
2021/08/31 11:31:28;;;;;;;7.20;6.60;;;20.50;99.90;;;;;;5034356;28;20430;-61
2021/08/31 11:33:55;;;;;;;7.27;6.57;;;20.50;99.90;;;;;;5034009;28;20762;-60
2021/08/31 11:36:28;;;;;;;6.47;5.87;;;20.60;99.90;;;;;;5034343;28;20453;-58
2021/08/31 11:38:58;;;;;;;7.53;6.83;;;20.50;99.90;;;;;;5034372;28;20774;-61
2021/08/31 11:41:26;;;;;;;8.10;7.30;;;20.50;99.90;;;;;;5034160;28;20452;-59
2021/08/31 11:43:55;;;;;;;7.70;7.00;;;20.80;99.90;;;;;;5034213;28;20459;-60
2021/08/31 11:46:32;;;;;;;8.70;6.90;;;20.50;99.90;;;;;;5034164;28;20436;-60
2021/08/31 11:49:25;;;;;;;8.23;6.73;;;20.40;99.90;;;;;;5033620;28;20417;-61
2021/08/31 11:52:02;;;;;;;7.90;7.20;;;20.50;99.90;;;;;;5030688;28;20950;-61
2021/08/31 11:54:39;;;;;;;6.87;6.20;;;20.50;99.90;;;;;;5016132;28;20410;-59
2021/08/31 11:57:06;;;;;;;6.93;6.23;;;20.70;99.90;;;;;;5033895;28;20430;-61
2021/08/31 11:59:52;;;;;;;7.07;6.27;;;21.40;99.90;;;;;;5033470;28;20764;-59
2021/08/31 12:02:26;;;;;;;6.93;6.23;;;22.00;99.90;;;;;;5033562;28;20427;-60
2021/08/31 12:04:55;;;;;;;7.13;6.53;;;22.20;99.90;;;;;;5033472;28;20378;-61
2021/08/31 12:07:23;;;;;;;9.80;6.60;;;22.60;99.90;;;;;;5033633;28;20406;-61
2021/08/31 12:09:50;;;;;;;7.17;6.47;;;22.40;99.90;;;;;;5033492;28;20438;-60
2021/08/31 12:12:16;;;;;;;9.60;6.73;;;22.40;99.90;;;;;;5033382;28;20432;-61
2021/08/31 12:14:46;;;;;;;9.50;6.13;;;21.90;99.90;;;;;;5033130;28;20426;-61
2021/08/31 12:17:12;;;;;;;7.87;7.13;;;22.10;99.90;;;;;;5033111;28;20454;-61
2021/08/31 12:19:43;;;;;;;7.17;6.47;;;22.10;99.90;;;;;;5033317;28;20955;-60
2021/08/31 12:22:14;;;;;;;6.23;5.73;;;22.20;99.90;;;;;;5033761;28;20591;-61
2021/08/31 12:24:42;;;;;;;8.20;6.27;;;21.90;99.90;;;;;;5034246;28;20402;-59
2021/08/31 12:27:16;;;;;;;6.20;5.70;;;22.00;99.90;;;;;;5033313;28;20409;-60
2021/08/31 12:29:50;;;;;;;6.53;5.93;;;22.50;99.90;;;;;;5032974;28;20410;-60
2021/08/31 12:32:23;;;;;;;6.80;6.10;;;22.50;99.90;;;;;;5033341;28;20430;-60
2021/08/31 12:34:50;;;;;;;7.17;5.93;;;22.20;99.90;;;;;;5032944;28;20460;-60
2021/08/31 12:37:33;;;;;;;8.07;6.10;;;22.50;99.90;;;;;;5022192;28;20462;-59